Time;durP1;ratioP1;P1;durP2;ratioP2;P2;SDS_P1;SDS_P2;PMS_P1;PMS_P2;Temp;Humidity;BMP_temperature;BMP_pressure;BME280_temperature;BME280_humidity;BME280_pressure;Samples;Min_cycle;Max_cycle;Signal;HPM_P1;HPM_P2
2023/06/23 00:01:59;;;;;;;17.55;7.40;;;;;;;30.88;28.88;100842.31;4972125;28;20064;-86
2023/06/23 00:04:26;;;;;;;23.95;7.38;;;;;;;30.76;29.05;100807.97;4969524;28;20045;-87
2023/06/23 00:06:55;;;;;;;25.08;7.68;;;;;;;30.84;28.61;100810.25;4984298;28;20427;-87
2023/06/23 00:09:23;;;;;;;23.23;7.60;;;;;;;30.85;28.83;100790.78;4980313;28;20446;-85
2023/06/23 00:11:52;;;;;;;17.20;7.45;;;;;;;30.83;28.83;100820.38;4971289;28;20144;-86
2023/06/23 00:14:21;;;;;;;19.92;7.00;;;;;;;30.96;28.63;100835.50;4992656;28;20088;-84
2023/06/23 00:16:51;;;;;;;15.65;6.68;;;;;;;30.61;29.10;100782.16;4984137;28;20045;-87
2023/06/23 00:19:22;;;;;;;15.10;6.65;;;;;;;30.86;29.06;100813.53;4963020;28;20468;-87
2023/06/23 00:21:55;;;;;;;24.52;7.75;;;;;;;30.67;29.00;100785.72;4970617;28;20073;-85
2023/06/23 00:24:22;;;;;;;14.05;7.70;;;;;;;30.82;29.16;100835.13;4969566;28;20507;-86
2023/06/23 00:26:49;;;;;;;14.43;6.80;;;;;;;29.96;29.58;100687.53;4980140;28;20871;-85
2023/06/23 00:29:20;;;;;;;13.40;6.78;;;;;;;30.30;29.62;100753.75;4969870;28;20049;-85
2023/06/23 00:31:49;;;;;;;23.08;7.68;;;;;;;30.67;30.14;100826.84;4964247;28;20046;-85
2023/06/23 00:34:21;;;;;;;17.77;6.70;;;;;;;30.21;30.29;100771.72;4956478;28;20084;-86
2023/06/23 00:36:54;;;;;;;30.63;8.23;;;;;;;29.62;31.11;100685.06;4937833;28;20045;-85
2023/06/23 00:39:22;;;;;;;23.80;7.75;;;;;;;30.36;31.21;100829.34;4959297;28;20085;-86
2023/06/23 00:41:51;;;;;;;14.57;7.60;;;;;;;30.06;30.96;100807.22;4929528;28;20459;-85
2023/06/23 00:44:22;;;;;;;16.45;7.72;;;;;;;30.38;30.87;100860.06;4937672;28;20796;-85
2023/06/23 00:46:49;;;;;;;26.52;7.85;;;;;;;30.40;30.14;100857.88;4944819;28;20391;-86
2023/06/23 00:49:16;;;;;;;16.20;7.10;;;;;;;29.98;30.00;100812.06;4974845;28;20423;-85
2023/06/23 00:51:44;;;;;;;14.30;6.93;;;;;;;29.48;30.00;100716.66;4991825;28;20499;-85
2023/06/23 00:54:14;;;;;;;14.93;7.00;;;;;;;30.34;29.92;100875.38;4976382;28;20045;-82
2023/06/23 00:56:40;;;;;;;17.85;7.95;;;;;;;30.49;29.66;100887.50;4974210;28;20080;-82
2023/06/23 00:59:07;;;;;;;16.05;7.30;;;;;;;30.35;29.58;100887.97;4948424;28;20046;-84
2023/06/23 01:01:39;;;;;;;21.25;7.80;;;;;;;30.09;29.96;100850.47;4967018;28;20411;-84
2023/06/23 01:04:08;;;;;;;19.52;7.85;;;;;;;30.07;30.31;100860.84;4962454;28;20075;-86
2023/06/23 01:07:02;;;;;;;21.17;7.65;;;;;;;30.20;30.61;100904.25;4942884;28;20053;-84
2023/06/23 01:09:44;;;;;;;23.52;8.10;;;;;;;30.15;30.93;100920.63;4952562;28;20049;-85
2023/06/23 01:12:17;;;;;;;20.42;7.53;;;;;;;29.99;31.18;100884.06;4983420;28;20056;-83
2023/06/23 01:15:04;;;;;;;16.13;8.07;;;;;;;29.89;31.70;100862.88;5008612;28;20128;-83
2023/06/23 01:18:00;;;;;;;40.60;9.50;;;;;;;29.66;31.92;100842.13;4977638;28;20052;-84
2023/06/23 01:20:32;;;;;;;20.10;8.73;;;;;;;29.92;32.37;100895.22;4944464;28;20050;-84
2023/06/23 01:23:14;;;;;;;22.38;8.95;;;;;;;30.03;32.82;100929.00;4935760;28;20230;-84
2023/06/23 01:25:59;;;;;;;35.35;8.93;;;;;;;30.22;32.38;100962.28;4951755;28;20129;-83
2023/06/23 01:28:32;;;;;;;30.45;8.60;;;;;;;30.11;32.80;100955.06;4951398;28;20057;-84
2023/06/23 01:31:02;;;;;;;21.63;8.05;;;;;;;29.47;33.01;100847.09;4956597;28;20058;-83
2023/06/23 01:33:44;;;;;;;24.42;8.80;;;;;;;30.00;33.27;100941.28;4978373;28;20057;-81
2023/06/23 01:36:19;;;;;;;34.72;8.77;;;;;;;30.08;33.64;100948.22;4993113;28;20041;-82
2023/06/23 01:38:49;;;;;;;31.42;9.35;;;;;;;30.02;33.86;100947.31;4961444;28;20049;-82
2023/06/23 01:41:23;;;;;;;35.43;9.70;;;;;;;30.04;34.35;100964.31;4962756;28;20274;-83
2023/06/23 01:43:59;;;;;;;24.15;9.43;;;;;;;29.88;34.54;100961.66;4937504;28;20517;-83
2023/06/23 01:46:35;;;;;;;28.75;9.77;;;;;;;29.61;34.82;100938.63;4939331;28;20073;-82
2023/06/23 01:49:13;;;;;;;23.65;9.38;;;;;;;29.71;35.32;100964.47;4935671;28;20353;-82
2023/06/23 01:51:49;;;;;;;18.23;9.35;;;;;;;29.86;35.51;100972.88;4988730;28;20064;-83
2023/06/23 01:54:18;;;;;;;28.60;9.90;;;;;;;29.54;35.81;100920.75;4964792;28;20050;-82
2023/06/23 01:56:47;;;;;;;29.83;8.93;;;;;;;29.04;36.17;100888.91;4990840;28;20049;-85
2023/06/23 01:59:18;;;;;;;23.60;9.82;;;;;;;29.36;36.53;100941.03;4984185;28;20092;-82
2023/06/23 02:01:49;;;;;;;33.22;9.82;;;;;;;28.94;36.88;100874.03;4988399;28;20052;-82
2023/06/23 02:04:41;;;;;;;;;;;;;;;29.37;37.15;100961.81;4957216;28;20395;-82
2023/06/23 02:07:12;;;;;;;24.33;10.75;;;;;;;29.40;37.08;100964.88;5001593;28;19925;-84
2023/06/23 02:09:41;;;;;;;;;;;;;;;29.42;37.14;100961.91;4987212;28;20061;-85
2023/06/23 02:12:09;;;;;;;27.83;10.48;;;;;;;29.27;37.62;100969.88;5002893;28;20008;-83
2023/06/23 02:14:39;;;;;;;29.05;10.23;;;;;;;29.08;37.81;100967.44;4997281;28;20482;-84
2023/06/23 02:17:10;;;;;;;24.83;10.15;;;;;;;29.24;38.11;100981.34;4975951;28;20054;-83
2023/06/23 02:19:43;;;;;;;28.52;11.02;;;;;;;28.75;38.61;100928.13;4984399;28;20304;-84
2023/06/23 02:22:18;;;;;;;23.23;11.30;;;;;;;28.91;38.75;100989.31;4951747;28;20210;-84
2023/06/23 02:24:47;;;;;;;32.13;10.43;;;;;;;28.97;39.02;100993.75;4964091;28;20148;-83
2023/06/23 02:27:13;;;;;;;18.42;10.40;;;;;;;28.15;39.25;100862.38;4949570;28;20062;-83
2023/06/23 02:29:41;;;;;;;26.10;12.15;;;;;;;28.88;39.20;100992.50;4955776;28;20042;-83
2023/06/23 02:32:10;;;;;;;28.92;11.43;;;;;;;27.84;39.64;100821.78;4956286;28;20046;-83
2023/06/23 02:34:42;;;;;;;20.17;11.35;;;;;;;28.88;39.69;100969.81;4970921;28;20529;-84
2023/06/23 02:37:19;;;;;;;30.80;12.75;;;;;;;28.71;39.66;100943.34;4994390;28;20049;-83
2023/06/23 02:39:57;;;;;;;19.67;11.40;;;;;;;28.75;40.13;100952.69;4994067;28;20470;-84
2023/06/23 02:42:32;;;;;;;24.65;11.30;;;;;;;28.75;40.31;100963.63;4990062;28;20045;-82
2023/06/23 02:45:03;;;;;;;29.77;13.07;;;;;;;28.74;40.62;100956.53;5010168;28;20507;-83
2023/06/23 02:47:36;;;;;;;28.95;12.10;;;;;;;28.58;40.74;100926.47;5004886;28;20561;-84
2023/06/23 02:50:06;;;;;;;33.42;13.75;;;;;;;28.69;40.52;100942.78;4985347;28;20356;-84
2023/06/23 02:52:37;;;;;;;28.67;13.85;;;;;;;28.71;40.78;100953.44;4989838;28;20159;-84
2023/06/23 02:55:07;;;;;;;31.70;13.30;;;;;;;28.36;41.58;100904.50;4973034;28;20060;-83
2023/06/23 02:57:35;;;;;;;29.98;13.57;;;;;;;28.63;41.66;100948.41;4964781;28;20411;-83
2023/06/23 03:00:17;;;;;;;30.48;14.82;;;;;;;28.00;42.72;100855.59;4967831;28;20709;-84
2023/06/23 03:02:51;;;;;;;23.98;13.15;;;;;;;28.42;42.67;100928.91;4979340;28;20061;-83
2023/06/23 03:05:27;;;;;;;29.65;12.52;;;;;;;28.56;42.51;100945.81;4977535;28;20242;-83
2023/06/23 03:07:54;;;;;;;27.23;12.90;;;;;;;28.71;42.23;100951.53;5008990;28;20291;-83
2023/06/23 03:10:27;;;;;;;26.55;12.85;;;;;;;28.62;42.11;100946.72;4986603;28;20049;-84
2023/06/23 03:12:54;;;;;;;26.17;13.63;;;;;;;28.42;43.12;100933.53;4980197;28;20137;-84
2023/06/23 03:15:21;;;;;;;25.85;12.35;;;;;;;28.26;43.35;100919.63;4988651;28;20330;-84
2023/06/23 03:17:58;;;;;;;30.98;12.57;;;;;;;28.31;43.74;100929.81;4974411;28;20050;-85
2023/06/23 03:20:37;;;;;;;25.85;12.85;;;;;;;28.30;43.40;100929.00;4950040;28;20060;-84
2023/06/23 03:23:10;;;;;;;24.63;12.48;;;;;;;28.37;43.33;100930.72;4978737;28;20046;-84
2023/06/23 03:25:41;;;;;;;25.25;11.57;;;;;;;28.30;43.08;100926.28;4964481;28;20061;-84
2023/06/23 03:28:10;;;;;;;28.45;12.43;;;;;;;28.34;43.12;100943.78;4957591;28;20157;-83
2023/06/23 03:30:53;;;;;;;26.38;12.50;;;;;;;28.31;43.41;100944.28;4971034;28;20057;-83
2023/06/23 03:33:40;;;;;;;29.42;12.77;;;;;;;28.29;43.49;100937.41;4978068;28;20057;-83
2023/06/23 03:36:17;;;;;;;31.40;13.07;;;;;;;28.34;43.09;100951.97;4983970;28;20483;-85
2023/06/23 03:39:01;;;;;;;27.58;13.48;;;;;;;28.21;43.50;100938.66;5004718;28;20041;-84
2023/06/23 03:41:33;;;;;;;23.48;11.90;;;;;;;27.95;43.65;100887.41;4975454;28;20076;-83
2023/06/23 03:44:32;;;;;;;17.63;11.93;;;;;;;28.17;44.51;100923.84;4994346;28;20054;-84
2023/06/23 03:47:13;;;;;;;;;;;;;;;27.88;44.27;100876.66;4958873;28;20640;-84
2023/06/23 03:49:44;;;;;;;22.77;11.68;;;;;;;28.02;44.19;100883.47;4980716;28;19943;-82
2023/06/23 03:52:12;;;;;;;21.63;11.13;;;;;;;28.18;44.01;100922.78;4976633;28;20053;-83
2023/06/23 03:54:40;;;;;;;19.92;12.52;;;;;;;28.18;43.75;100914.59;4974953;28;20549;-81
2023/06/23 03:57:10;;;;;;;26.88;12.52;;;;;;;27.71;43.42;100824.75;5004408;28;20598;-83
2023/06/23 03:59:39;;;;;;;27.40;12.88;;;;;;;28.23;43.69;100922.88;4967455;28;20057;-82
2023/06/23 04:02:16;;;;;;;22.00;11.45;;;;;;;27.58;43.02;100811.44;4963809;28;20596;-83
2023/06/23 04:04:45;;;;;;;28.75;12.20;;;;;;;28.28;43.46;100917.50;4982309;28;20045;-83
2023/06/23 04:07:14;;;;;;;24.20;10.65;;;;;;;27.42;43.11;100767.50;4972269;28;20046;-83
2023/06/23 04:09:45;;;;;;;28.65;12.30;;;;;;;27.57;43.11;100812.50;4997582;28;20331;-83
2023/06/23 04:12:14;;;;;;;32.75;11.90;;;;;;;27.84;43.55;100865.41;4981462;28;20054;-84
2023/06/23 04:14:44;;;;;;;36.13;12.82;;;;;;;27.20;43.46;100744.75;4980086;28;20238;-83
2023/06/23 04:17:15;;;;;;;22.10;11.52;;;;;;;28.27;43.63;100907.63;4974926;28;20417;-82
2023/06/23 04:19:55;;;;;;;35.38;13.30;;;;;;;28.37;43.99;100908.88;4959664;28;20775;-83
2023/06/23 04:22:23;;;;;;;31.50;13.18;;;;;;;28.36;44.20;100918.16;4968663;28;20467;-82
2023/06/23 04:24:56;;;;;;;30.42;12.70;;;;;;;28.08;44.79;100865.25;4981462;28;20052;-84
2023/06/23 04:27:28;;;;;;;33.92;12.38;;;;;;;28.25;43.91;100909.78;4962981;28;20050;-83
2023/06/23 04:29:56;;;;;;;21.48;11.80;;;;;;;27.46;43.65;100787.78;4976084;28;20396;-81
2023/06/23 04:32:25;;;;;;;22.57;10.33;;;;;;;27.61;42.37;100816.41;4972009;28;20034;-82
2023/06/23 04:34:52;;;;;;;30.77;11.10;;;;;;;27.65;41.09;100820.28;4967429;28;20311;-83
2023/06/23 04:37:44;;;;;;;18.67;9.50;;;;;;;28.19;41.29;100910.78;4975995;28;20097;-83
2023/06/23 04:40:34;;;;;;;22.90;10.25;;;;;;;28.14;40.49;100880.66;4975984;28;20475;-83
2023/06/23 04:43:13;;;;;;;19.85;9.23;;;;;;;28.24;40.38;100891.75;4998343;28;20379;-83
2023/06/23 04:45:50;;;;;;;22.83;10.23;;;;;;;28.24;39.94;100886.28;4983883;28;20061;-82
2023/06/23 04:48:23;;;;;;;19.27;9.57;;;;;;;28.18;39.39;100900.09;4972687;28;20542;-81
2023/06/23 04:50:54;;;;;;;22.48;12.23;;;;;;;28.12;38.93;100885.53;4970796;28;20254;-83
2023/06/23 04:53:25;;;;;;;21.10;10.30;;;;;;;28.04;38.58;100861.41;4985300;28;20062;-84
2023/06/23 04:56:02;;;;;;;29.45;10.32;;;;;;;28.23;38.97;100901.03;4985653;28;20533;-83
2023/06/23 04:58:37;;;;;;;20.35;8.65;;;;;;;28.20;38.80;100882.41;4993931;28;20399;-83
2023/06/23 05:01:09;;;;;;;25.98;13.88;;;;;;;27.65;38.01;100795.75;4974479;28;20057;-84
2023/06/23 05:03:38;;;;;;;17.08;8.48;;;;;;;28.10;37.70;100860.41;4973159;28;20058;-82
2023/06/23 05:06:07;;;;;;;15.00;7.72;;;;;;;28.10;37.37;100849.47;4974193;28;20476;-82
2023/06/23 05:08:35;;;;;;;17.63;8.63;;;;;;;28.15;37.43;100855.00;4973854;28;20069;-82
2023/06/23 05:11:08;;;;;;;20.30;8.40;;;;;;;28.01;36.98;100820.94;4965459;28;20050;-83
2023/06/23 05:13:36;;;;;;;21.13;8.10;;;;;;;27.77;37.14;100788.34;4967031;28;20050;-82
2023/06/23 05:16:10;;;;;;;16.77;8.32;;;;;;;28.71;37.10;100926.94;4973590;28;20553;-83
2023/06/23 05:18:39;;;;;;;21.30;8.50;;;;;;;28.76;37.00;100927.06;4971974;28;20061;-82
2023/06/23 05:21:07;;;;;;;16.27;7.63;;;;;;;28.84;37.18;100939.47;4963640;28;20041;-83
2023/06/23 05:23:36;;;;;;;20.95;8.57;;;;;;;28.71;37.16;100921.47;4967056;28;20053;-83
2023/06/23 05:26:19;;;;;;;11.23;8.27;;;;;;;28.93;37.03;100942.56;4974201;28;20356;-80
2023/06/23 05:28:48;;;;;;;18.83;8.57;;;;;;;29.02;36.34;100932.88;4969018;28;20452;-83
2023/06/23 05:31:23;;;;;;;17.83;8.10;;;;;;;28.38;36.82;100842.31;4963787;28;20425;-82
2023/06/23 05:33:58;;;;;;;16.23;8.80;;;;;;;28.52;37.17;100876.38;4959912;28;20248;-82
2023/06/23 05:36:28;;;;;;;23.20;8.95;;;;;;;28.28;37.36;100849.25;4953727;28;20523;-81
2023/06/23 05:38:59;;;;;;;18.63;8.73;;;;;;;28.83;37.76;100943.25;4958745;28;20455;-83
2023/06/23 05:41:26;;;;;;;28.92;9.80;;;;;;;27.81;37.78;100784.00;4962731;28;20060;-82
2023/06/23 05:43:52;;;;;;;24.10;8.60;;;;;;;28.19;37.34;100828.06;4962405;28;20083;-83
2023/06/23 05:46:23;;;;;;;28.13;9.02;;;;;;;28.84;37.99;100941.38;4977437;28;20054;-83
2023/06/23 05:49:00;;;;;;;19.13;10.23;;;;;;;28.87;38.70;100943.59;4972647;28;20319;-83
2023/06/23 05:51:32;;;;;;;22.85;10.30;;;;;;;28.68;39.39;100902.03;4953084;28;20046;-80
2023/06/23 05:54:08;;;;;;;21.65;11.13;;;;;;;29.08;40.82;100950.19;4973839;28;20054;-82
2023/06/23 05:56:39;;;;;;;29.42;11.95;;;;;;;29.11;41.59;100956.00;4964378;28;20399;-83
2023/06/23 05:59:18;;;;;;;21.60;12.05;;;;;;;29.23;41.84;100949.63;4952431;28;20393;-83
2023/06/23 06:01:57;;;;;;;23.13;11.98;;;;;;;28.94;42.45;100934.13;4960215;28;20416;-82
2023/06/23 06:04:29;;;;;;;24.65;12.35;;;;;;;29.09;43.40;100971.00;4934282;28;20409;-83
2023/06/23 06:06:58;;;;;;;28.10;13.25;;;;;;;29.03;42.92;100959.16;4982976;28;20053;-82
2023/06/23 06:09:29;;;;;;;26.75;12.48;;;;;;;29.08;43.35;100985.72;4977183;28;20442;-82
2023/06/23 06:11:58;;;;;;;24.70;12.43;;;;;;;28.83;43.42;100948.72;4979172;28;20558;-84
2023/06/23 06:14:28;;;;;;;27.92;13.70;;;;;;;28.93;43.94;100980.84;4981518;28;20486;-83
2023/06/23 06:16:56;;;;;;;35.93;14.57;;;;;;;28.94;44.95;100977.03;4964284;28;20095;-83
2023/06/23 06:19:29;;;;;;;34.47;14.48;;;;;;;28.89;45.49;100979.69;4983145;28;20673;-82
2023/06/23 06:22:00;;;;;;;20.70;13.17;;;;;;;28.96;45.62;100991.28;4972326;28;20188;-82
2023/06/23 06:24:33;;;;;;;30.63;13.68;;;;;;;28.36;46.25;100899.88;4968255;28;20387;-82
2023/06/23 06:27:02;;;;;;;31.50;13.80;;;;;;;28.91;46.52;100983.84;4954860;28;20065;-82
2023/06/23 06:29:32;;;;;;;26.90;13.50;;;;;;;28.65;46.44;100949.00;4976295;28;20053;-82
2023/06/23 06:32:10;;;;;;;28.35;12.70;;;;;;;28.91;47.05;100992.03;4950628;28;20357;-83
2023/06/23 06:34:47;;;;;;;27.25;13.75;;;;;;;28.93;47.25;100991.75;4950621;28;20042;-81
2023/06/23 06:37:16;;;;;;;33.25;13.68;;;;;;;28.96;47.49;101002.22;4965457;28;20052;-82
2023/06/23 06:39:44;;;;;;;21.60;14.15;;;;;;;28.88;47.82;100983.50;4964011;28;20664;-83
2023/06/23 06:42:11;;;;;;;29.52;13.52;;;;;;;28.53;47.84;100935.41;4973267;28;20198;-81
2023/06/23 06:44:40;;;;;;;25.50;13.25;;;;;;;28.43;47.76;100905.19;4985913;28;20053;-82
2023/06/23 06:47:10;;;;;;;24.02;14.75;;;;;;;28.97;48.55;101003.84;4952350;28;20542;-82
2023/06/23 06:49:41;;;;;;;26.70;13.15;;;;;;;29.03;48.53;101002.88;4984861;28;20052;-82
2023/06/23 06:52:11;;;;;;;24.17;13.90;;;;;;;28.58;48.36;100913.63;4991449;28;20107;-82
2023/06/23 06:54:39;;;;;;;22.17;13.98;;;;;;;28.88;47.59;100950.69;4985127;28;20503;-82
2023/06/23 06:57:06;;;;;;;33.70;13.68;;;;;;;28.17;46.72;100836.50;4993099;28;20142;-82
2023/06/23 06:59:42;;;;;;;28.95;13.75;;;;;;;29.06;46.73;100966.88;4990357;28;20318;-81
2023/06/23 07:02:32;;;;;;;33.90;13.50;;;;;;;29.10;47.13;101010.91;4969113;28;20279;-82
2023/06/23 07:05:01;;;;;;;26.92;14.07;;;;;;;28.44;46.94;100907.63;4970111;28;20045;-82
2023/06/23 07:07:39;;;;;;;29.73;13.00;;;;;;;28.31;47.07;100908.81;4960944;28;20218;-83
2023/06/23 07:10:11;;;;;;;26.63;12.88;;;;;;;29.07;47.39;101031.38;4954913;28;20181;-82
2023/06/23 07:12:39;;;;;;;33.33;13.38;;;;;;;28.46;47.31;100932.00;4975080;28;20419;-82
2023/06/23 07:15:09;;;;;;;24.93;13.23;;;;;;;28.12;47.60;100878.16;4989755;28;20481;-83
2023/06/23 07:17:36;;;;;;;31.15;13.27;;;;;;;27.57;47.71;100798.84;4990354;28;20387;-81
2023/06/23 07:20:15;;;;;;;33.45;12.77;;;;;;;28.77;47.25;100975.13;4974323;28;20459;-83
2023/06/23 07:22:54;;;;;;;34.63;14.40;;;;;;;28.71;47.75;100981.56;4966962;28;20174;-82
2023/06/23 07:25:21;;;;;;;23.52;12.18;;;;;;;28.88;47.70;101022.56;4978032;28;20124;-81
2023/06/23 07:27:48;;;;;;;31.67;13.40;;;;;;;28.83;47.77;101030.69;4976155;28;20157;-82
2023/06/23 07:30:16;;;;;;;33.35;13.77;;;;;;;28.74;47.90;101010.31;4991652;28;20045;-82
2023/06/23 07:32:45;;;;;;;31.42;12.10;;;;;;;28.94;47.66;101028.97;4987229;28;20053;-82
2023/06/23 07:35:15;;;;;;;30.30;14.75;;;;;;;28.69;47.53;100981.03;4993878;28;20041;-82
2023/06/23 07:37:43;;;;;;;30.85;14.93;;;;;;;28.90;47.74;101019.59;4978952;28;20049;-82
2023/06/23 07:40:16;;;;;;;29.08;13.02;;;;;;;29.12;47.71;101023.25;4982692;28;20282;-83
2023/06/23 07:42:51;;;;;;;31.23;13.77;;;;;;;29.15;47.25;101009.09;5000734;28;20053;-82
2023/06/23 07:45:17;;;;;;;33.72;13.77;;;;;;;29.16;47.52;101027.16;4991829;28;20049;-81
2023/06/23 07:47:44;;;;;;;36.88;13.55;;;;;;;29.22;47.50;101027.22;4986250;28;20111;-81
2023/06/23 07:50:11;;;;;;;39.33;13.55;;;;;;;29.25;46.98;101016.63;4978857;28;20110;-82
2023/06/23 07:52:37;;;;;;;34.80;14.15;;;;;;;29.20;47.58;101011.06;5005042;28;20230;-82
2023/06/23 07:55:05;;;;;;;34.63;13.55;;;;;;;28.63;47.63;100910.97;5003422;28;20258;-82
2023/06/23 07:57:34;;;;;;;26.40;13.27;;;;;;;28.89;47.68;100946.91;4981104;28;20056;-83
2023/06/23 08:00:03;;;;;;;34.97;14.77;;;;;;;29.03;48.10;100981.00;4978783;28;20045;-79
2023/06/23 08:02:29;;;;;;;34.17;14.55;;;;;;;27.84;48.31;100777.28;4981037;28;20635;-80
2023/06/23 08:04:56;;;;;;;29.95;13.07;;;;;;;28.95;47.67;100937.69;4982003;28;20451;-82
2023/06/23 08:07:27;;;;;;;40.65;14.73;;;;;;;28.02;47.81;100787.97;4980901;28;20058;-81
2023/06/23 08:09:55;;;;;;;33.83;13.70;;;;;;;29.46;48.17;101015.00;4944053;28;20529;-80
2023/06/23 08:12:32;;;;;;;41.13;14.57;;;;;;;29.38;47.31;100968.97;4934111;28;20046;-83
2023/06/23 08:14:59;;;;;;;28.70;13.43;;;;;;;29.68;47.28;101014.22;4977984;28;20455;-82
2023/06/23 08:17:27;;;;;;;33.60;14.30;;;;;;;29.32;47.43;100934.41;4988925;28;20054;-80
2023/06/23 08:19:54;;;;;;;29.85;13.82;;;;;;;28.99;47.00;100854.13;4969970;28;20049;-82
2023/06/23 08:22:21;;;;;;;29.13;13.18;;;;;;;29.82;46.75;100983.50;4987297;28;20053;-82
2023/06/23 08:24:48;;;;;;;32.92;13.85;;;;;;;29.84;47.51;100994.19;4973853;28;20176;-83
2023/06/23 08:27:14;;;;;;;35.42;13.98;;;;;;;29.75;47.45;100982.03;4962034;28;20508;-81
2023/06/23 08:29:41;;;;;;;39.72;14.13;;;;;;;29.82;47.20;100982.66;4968262;28;20642;-82
2023/06/23 08:32:08;;;;;;;30.33;14.20;;;;;;;29.77;46.40;100968.94;4977585;28;20127;-82
2023/06/23 08:34:37;;;;;;;36.40;13.65;;;;;;;30.14;46.30;100996.44;4975182;28;20050;-82
2023/06/23 08:37:04;;;;;;;28.40;12.98;;;;;;;29.64;47.01;100937.28;4973152;28;20046;-82
2023/06/23 08:39:31;;;;;;;33.10;12.63;;;;;;;29.79;45.78;100928.47;4966831;28;20050;-81
2023/06/23 08:42:01;;;;;;;38.45;12.65;;;;;;;29.71;45.75;100926.16;4978915;28;20485;-81
2023/06/23 08:44:29;;;;;;;40.45;13.48;;;;;;;30.12;44.63;100957.53;4976799;28;20500;-82
2023/06/23 08:47:02;;;;;;;36.70;13.73;;;;;;;30.21;45.33;100993.50;5000153;28;20541;-82
2023/06/23 08:49:38;;;;;;;33.50;11.98;;;;;;;29.02;45.41;100798.97;4976085;28;20538;-82
2023/06/23 08:52:07;;;;;;;32.80;12.50;;;;;;;29.45;45.43;100870.34;4975421;28;20052;-82
2023/06/23 08:54:35;;;;;;;39.72;13.50;;;;;;;30.03;44.59;100932.56;4977541;28;20285;-83
2023/06/23 08:57:03;;;;;;;29.98;12.48;;;;;;;30.18;44.45;100937.34;4987020;28;20054;-83
2023/06/23 08:59:34;;;;;;;31.85;12.63;;;;;;;30.14;44.10;100925.25;4986377;28;20056;-82
2023/06/23 09:02:03;;;;;;;33.72;11.43;;;;;;;29.92;41.80;100854.16;4968540;28;20054;-82
2023/06/23 09:04:30;;;;;;;37.65;12.10;;;;;;;30.54;42.55;100967.03;4970146;28;20498;-82
2023/06/23 09:06:59;;;;;;;39.42;12.80;;;;;;;30.49;42.83;100943.16;4969754;28;20045;-81
2023/06/23 09:09:27;;;;;;;38.83;12.18;;;;;;;30.67;42.97;100956.44;4984913;28;20088;-82
2023/06/23 09:11:56;;;;;;;25.98;12.07;;;;;;;29.98;42.84;100861.34;4977394;28;20299;-83
2023/06/23 09:14:33;;;;;;;27.08;11.32;;;;;;;30.25;44.11;100912.53;4976847;28;20248;-81
2023/06/23 09:17:02;;;;;;;39.22;13.80;;;;;;;30.07;43.36;100858.13;4970365;28;20053;-81
2023/06/23 09:19:39;;;;;;;33.25;12.32;;;;;;;30.37;42.63;100895.94;4975019;28;20300;-84
2023/06/23 09:22:08;;;;;;;27.20;12.40;;;;;;;29.86;42.53;100792.28;4972552;28;20053;-83
2023/06/23 09:24:43;;;;;;;26.40;11.88;;;;;;;30.75;42.38;100935.94;4990058;28;20049;-81
2023/06/23 09:27:15;;;;;;;29.27;12.07;;;;;;;30.31;42.72;100851.22;4988955;28;20648;-82
2023/06/23 09:29:59;;;;;;;38.17;12.90;;;;;;;31.30;41.69;100975.78;4987203;28;20607;-83
2023/06/23 09:32:29;;;;;;;26.65;11.45;;;;;;;31.27;41.07;100978.25;4979083;28;20053;-83
2023/06/23 09:34:56;;;;;;;25.80;11.53;;;;;;;30.62;41.59;100862.41;4982111;28;20433;-83
2023/06/23 09:37:23;;;;;;;31.52;11.52;;;;;;;31.44;41.56;100983.59;4968933;28;20677;-84
2023/06/23 09:39:55;;;;;;;30.75;10.80;;;;;;;31.57;40.66;100980.34;4977494;28;20049;-83
2023/06/23 09:42:24;;;;;;;29.52;12.15;;;;;;;31.12;41.45;100895.88;4981540;28;20128;-82
2023/06/23 09:44:51;;;;;;;26.23;11.07;;;;;;;31.60;41.34;100965.25;4970172;28;20479;-82
2023/06/23 09:47:29;;;;;;;34.13;11.93;;;;;;;30.78;40.07;100775.63;4963988;28;20057;-82
2023/06/23 09:50:00;;;;;;;35.20;10.82;;;;;;;31.18;41.08;100850.97;4956552;28;20412;-80
2023/06/23 09:52:35;;;;;;;34.20;12.32;;;;;;;31.94;40.83;100960.16;4948568;28;20076;-84
2023/06/23 09:55:06;;;;;;;41.25;12.43;;;;;;;31.12;40.51;100819.97;4941579;28;20487;-82
2023/06/23 09:57:33;;;;;;;31.58;12.18;;;;;;;32.14;40.30;100945.69;4970985;28;20053;-82
2023/06/23 10:00:00;;;;;;;38.85;12.50;;;;;;;32.05;40.26;100912.44;4960600;28;20045;-83
2023/06/23 10:02:29;;;;;;;29.20;12.00;;;;;;;31.95;39.90;100893.22;4965775;28;20049;-84
2023/06/23 10:05:03;;;;;;;31.23;12.13;;;;;;;32.39;39.93;100950.38;4945534;28;20057;-82
2023/06/23 10:07:34;;;;;;;33.13;12.27;;;;;;;32.46;40.27;100941.88;4942808;28;20073;-83
2023/06/23 10:10:07;;;;;;;42.42;12.43;;;;;;;32.39;39.54;100939.41;4976683;28;20129;-81
2023/06/23 10:12:50;;;;;;;26.92;12.00;;;;;;;32.48;39.86;100951.50;4988535;28;20053;-83
2023/06/23 10:15:17;;;;;;;28.40;11.82;;;;;;;32.31;39.89;100917.97;4963877;28;20140;-81
2023/06/23 10:17:44;;;;;;;33.72;11.90;;;;;;;32.60;39.56;100950.41;4951410;28;20057;-81
2023/06/23 10:20:31;;;;;;;33.50;12.48;;;;;;;32.75;39.55;100950.41;4933135;28;20307;-81
2023/06/23 10:23:02;;;;;;;31.88;11.93;;;;;;;32.68;39.99;100938.88;4992769;28;20144;-81
2023/06/23 10:25:37;;;;;;;36.13;11.10;;;;;;;32.81;39.51;100927.28;4982915;28;20047;-82
2023/06/23 10:28:09;;;;;;;39.55;13.23;;;;;;;32.91;39.34;100941.03;4991352;28;20087;-83
2023/06/23 10:30:36;;;;;;;31.90;11.73;;;;;;;32.20;39.29;100800.97;4990320;28;20060;-82
2023/06/23 10:33:08;;;;;;;34.58;12.18;;;;;;;33.03;40.01;100934.41;4983169;28;20049;-82
2023/06/23 10:35:39;;;;;;;39.40;12.35;;;;;;;32.14;38.94;100770.75;4966871;28;20073;-83
2023/06/23 10:38:07;;;;;;;;;;;;;;;33.24;38.95;100936.03;4989869;28;20053;-83
2023/06/23 10:40:39;;;;;;;29.60;11.50;;;;;;;33.27;38.77;100907.94;4989271;28;20014;-82
2023/06/23 10:43:10;;;;;;;40.33;11.40;;;;;;;33.08;38.09;100854.66;4990604;28;20120;-83
2023/06/23 10:45:37;;;;;;;34.45;11.98;;;;;;;32.85;38.04;100807.44;4971349;28;20300;-82
2023/06/23 10:48:04;;;;;;;29.08;11.80;;;;;;;33.30;38.17;100868.88;4988881;28;20326;-82
2023/06/23 10:50:32;;;;;;;34.60;12.65;;;;;;;33.61;37.53;100919.09;4954781;28;20045;-82
2023/06/23 10:53:12;;;;;;;42.63;11.32;;;;;;;33.78;36.89;100921.50;4930430;28;20107;-81
2023/06/23 10:55:40;;;;;;;29.23;11.15;;;;;;;34.02;37.37;100940.91;4928276;28;20049;-81
2023/06/23 10:58:28;;;;;;;29.48;11.80;;;;;;;33.63;36.84;100856.34;4961890;28;20108;-82
2023/06/23 11:01:01;;;;;;;32.45;10.88;;;;;;;34.47;35.56;100930.69;4935512;28;20321;-82
2023/06/23 11:03:38;;;;;;;28.88;9.95;;;;;;;34.00;35.15;100845.91;4966664;28;20565;-81
2023/06/23 11:06:10;;;;;;;34.40;10.48;;;;;;;34.56;34.53;100911.56;4970679;28;20438;-82
2023/06/23 11:08:44;;;;;;;29.10;11.07;;;;;;;34.39;34.92;100873.41;4965911;28;20127;-81
2023/06/23 11:11:12;;;;;;;23.85;10.55;;;;;;;34.41;35.23;100871.19;4970825;28;21009;-83
2023/06/23 11:13:41;;;;;;;28.05;12.18;;;;;;;34.81;35.61;100929.00;4966582;28;20045;-82
2023/06/23 11:16:39;;;;;;;30.83;11.88;;;;;;;34.85;35.03;100916.28;4973018;28;20053;-83
2023/06/23 11:19:08;;;;;;;32.22;10.75;;;;;;;35.05;34.38;100912.47;4967254;28;20049;-82
2023/06/23 11:21:44;;;;;;;30.20;10.93;;;;;;;35.24;35.46;100937.38;4980917;28;20053;-81
2023/06/23 11:24:18;;;;;;;40.22;10.88;;;;;;;35.19;34.64;100918.97;4984230;28;20041;-82
2023/06/23 11:26:59;;;;;;;35.67;11.30;;;;;;;35.27;34.67;100921.09;4973245;28;20042;-82
2023/06/23 11:29:26;;;;;;;31.52;10.73;;;;;;;35.33;33.95;100910.78;4970443;28;20116;-82
2023/06/23 11:32:19;;;;;;;24.33;10.85;;;;;;;35.24;35.07;100904.28;4982780;28;20143;-81
2023/06/23 11:34:51;;;;;;;26.95;12.02;;;;;;;35.02;34.78;100861.47;4981905;28;20133;-81